sensor_id;sensor_type;location;lat;lon;timestamp;temperature;humidity
43249;DHT22;29216;51.248;6.808;2023-03-14T00:02:10;11.30;59.90
43249;DHT22;29216;51.248;6.808;2023-03-14T00:04:36;11.30;60.10
43249;DHT22;29216;51.248;6.808;2023-03-14T00:07:03;11.30;59.60
43249;DHT22;29216;51.248;6.808;2023-03-14T00:09:29;11.30;59.20
43249;DHT22;29216;51.248;6.808;2023-03-14T00:11:55;11.40;57.80
43249;DHT22;29216;51.248;6.808;2023-03-14T00:14:21;11.40;58.40
43249;DHT22;29216;51.248;6.808;2023-03-14T00:16:46;11.40;57.80
43249;DHT22;29216;51.248;6.808;2023-03-14T00:19:12;11.30;58.50
43249;DHT22;29216;51.248;6.808;2023-03-14T00:21:38;11.30;58.40
43249;DHT22;29216;51.248;6.808;2023-03-14T00:24:03;11.20;58.80
43249;DHT22;29216;51.248;6.808;2023-03-14T00:26:29;11.30;56.20
43249;DHT22;29216;51.248;6.808;2023-03-14T00:28:55;11.40;55.10
43249;DHT22;29216;51.248;6.808;2023-03-14T00:31:21;11.50;54.80
43249;DHT22;29216;51.248;6.808;2023-03-14T00:33:47;11.50;53.60
43249;DHT22;29216;51.248;6.808;2023-03-14T00:36:15;11.60;51.60
43249;DHT22;29216;51.248;6.808;2023-03-14T00:38:43;11.60;52.40
43249;DHT22;29216;51.248;6.808;2023-03-14T00:41:11;11.70;53.70
43249;DHT22;29216;51.248;6.808;2023-03-14T00:43:37;11.60;95.00
43249;DHT22;29216;51.248;6.808;2023-03-14T00:46:03;11.50;99.90
43249;DHT22;29216;51.248;6.808;2023-03-14T00:48:29;11.30;99.90
43249;DHT22;29216;51.248;6.808;2023-03-14T00:50:55;10.90;99.90
43249;DHT22;29216;51.248;6.808;2023-03-14T00:53:21;10.70;99.90
43249;DHT22;29216;51.248;6.808;2023-03-14T00:55:47;10.50;99.90
43249;DHT22;29216;51.248;6.808;2023-03-14T00:58:14;10.20;99.90
43249;DHT22;29216;51.248;6.808;2023-03-14T01:00:41;10.20;99.90
43249;DHT22;29216;51.248;6.808;2023-03-14T01:03:08;10.10;99.90
43249;DHT22;29216;51.248;6.808;2023-03-14T01:05:34;10.00;99.90
43249;DHT22;29216;51.248;6.808;2023-03-14T01:08:01;9.90;99.90
43249;DHT22;29216;51.248;6.808;2023-03-14T01:10:27;9.90;99.90
43249;DHT22;29216;51.248;6.808;2023-03-14T01:12:53;9.80;99.90
43249;DHT22;29216;51.248;6.808;2023-03-14T01:15:18;9.80;99.90
43249;DHT22;29216;51.248;6.808;2023-03-14T01:17:44;9.70;99.90
43249;DHT22;29216;51.248;6.808;2023-03-14T01:20:11;9.60;99.90
43249;DHT22;29216;51.248;6.808;2023-03-14T01:22:39;9.60;99.90
43249;DHT22;29216;51.248;6.808;2023-03-14T01:25:10;9.60;99.90
43249;DHT22;29216;51.248;6.808;2023-03-14T01:27:36;9.50;99.90
43249;DHT22;29216;51.248;6.808;2023-03-14T01:30:02;9.50;99.90
43249;DHT22;29216;51.248;6.808;2023-03-14T01:32:28;9.50;99.90
43249;DHT22;29216;51.248;6.808;2023-03-14T01:34:53;9.50;99.90
43249;DHT22;29216;51.248;6.808;2023-03-14T01:37:19;9.40;99.90
43249;DHT22;29216;51.248;6.808;2023-03-14T01:39:47;9.40;99.90
43249;DHT22;29216;51.248;6.808;2023-03-14T01:42:13;9.30;99.90
43249;DHT22;29216;51.248;6.808;2023-03-14T01:44:55;9.30;99.90
43249;DHT22;29216;51.248;6.808;2023-03-14T01:47:21;9.30;99.90
43249;DHT22;29216;51.248;6.808;2023-03-14T01:50:06;9.40;99.90
43249;DHT22;29216;51.248;6.808;2023-03-14T01:52:36;9.40;99.90
43249;DHT22;29216;51.248;6.808;2023-03-14T01:55:10;9.40;99.90
43249;DHT22;29216;51.248;6.808;2023-03-14T01:57:41;9.40;99.90
43249;DHT22;29216;51.248;6.808;2023-03-14T02:00:14;9.40;99.90
43249;DHT22;29216;51.248;6.808;2023-03-14T02:02:49;9.50;99.90
43249;DHT22;29216;51.248;6.808;2023-03-14T02:05:18;9.50;99.90
43249;DHT22;29216;51.248;6.808;2023-03-14T02:07:56;9.60;99.90
43249;DHT22;29216;51.248;6.808;2023-03-14T02:10:25;9.60;99.90
43249;DHT22;29216;51.248;6.808;2023-03-14T02:12:53;9.70;99.90
43249;DHT22;29216;51.248;6.808;2023-03-14T02:15:20;9.70;99.90
43249;DHT22;29216;51.248;6.808;2023-03-14T02:17:46;9.80;99.90
43249;DHT22;29216;51.248;6.808;2023-03-14T02:22:47;9.80;99.90
43249;DHT22;29216;51.248;6.808;2023-03-14T02:25:42;9.80;99.90
43249;DHT22;29216;51.248;6.808;2023-03-14T02:28:11;9.90;99.90
43249;DHT22;29216;51.248;6.808;2023-03-14T02:30:38;10.00;99.90
43249;DHT22;29216;51.248;6.808;2023-03-14T02:33:13;10.00;99.90
43249;DHT22;29216;51.248;6.808;2023-03-14T02:35:50;10.00;99.90
43249;DHT22;29216;51.248;6.808;2023-03-14T02:38:35;10.00;99.90
43249;DHT22;29216;51.248;6.808;2023-03-14T02:41:03;9.90;99.90
43249;DHT22;29216;51.248;6.808;2023-03-14T02:43:29;9.90;99.90
43249;DHT22;29216;51.248;6.808;2023-03-14T02:45:55;9.90;99.90
43249;DHT22;29216;51.248;6.808;2023-03-14T02:48:43;9.90;99.90
43249;DHT22;29216;51.248;6.808;2023-03-14T02:51:11;9.90;99.90
43249;DHT22;29216;51.248;6.808;2023-03-14T02:53:43;9.90;99.90
43249;DHT22;29216;51.248;6.808;2023-03-14T02:56:10;9.90;99.90
43249;DHT22;29216;51.248;6.808;2023-03-14T02:58:36;9.90;99.90
43249;DHT22;29216;51.248;6.808;2023-03-14T03:01:02;9.90;99.90
43249;DHT22;29216;51.248;6.808;2023-03-14T03:03:28;9.90;99.90
43249;DHT22;29216;51.248;6.808;2023-03-14T03:05:55;9.90;99.90
43249;DHT22;29216;51.248;6.808;2023-03-14T03:08:22;10.00;99.90
43249;DHT22;29216;51.248;6.808;2023-03-14T03:10:48;10.00;99.90
43249;DHT22;29216;51.248;6.808;2023-03-14T03:13:14;10.00;99.90
43249;DHT22;29216;51.248;6.808;2023-03-14T03:15:40;9.90;99.90
43249;DHT22;29216;51.248;6.808;2023-03-14T03:18:06;9.90;99.90
43249;DHT22;29216;51.248;6.808;2023-03-14T03:20:32;9.90;99.90
43249;DHT22;29216;51.248;6.808;2023-03-14T03:22:59;9.80;99.90
43249;DHT22;29216;51.248;6.808;2023-03-14T03:25:25;9.90;99.90
43249;DHT22;29216;51.248;6.808;2023-03-14T03:27:51;9.90;99.90
43249;DHT22;29216;51.248;6.808;2023-03-14T03:30:17;9.80;99.90
43249;DHT22;29216;51.248;6.808;2023-03-14T03:32:43;9.80;99.90
43249;DHT22;29216;51.248;6.808;2023-03-14T03:35:09;9.80;99.90
43249;DHT22;29216;51.248;6.808;2023-03-14T03:37:35;9.70;99.90
43249;DHT22;29216;51.248;6.808;2023-03-14T03:40:00;9.80;99.90
43249;DHT22;29216;51.248;6.808;2023-03-14T03:42:27;9.80;99.90
43249;DHT22;29216;51.248;6.808;2023-03-14T03:44:53;9.80;99.90
43249;DHT22;29216;51.248;6.808;2023-03-14T03:47:18;9.70;99.90
43249;DHT22;29216;51.248;6.808;2023-03-14T03:49:44;9.70;99.90
43249;DHT22;29216;51.248;6.808;2023-03-14T03:52:09;9.60;99.90
43249;DHT22;29216;51.248;6.808;2023-03-14T03:54:35;9.60;99.90
43249;DHT22;29216;51.248;6.808;2023-03-14T03:57:01;9.60;99.90
43249;DHT22;29216;51.248;6.808;2023-03-14T03:59:27;9.60;99.90
43249;DHT22;29216;51.248;6.808;2023-03-14T04:01:52;9.60;99.90
43249;DHT22;29216;51.248;6.808;2023-03-14T04:04:18;9.50;99.90
43249;DHT22;29216;51.248;6.808;2023-03-14T04:06:43;9.40;99.90
43249;DHT22;29216;51.248;6.808;2023-03-14T04:09:10;9.40;99.90
43249;DHT22;29216;51.248;6.808;2023-03-14T04:11:36;9.40;99.90
43249;DHT22;29216;51.248;6.808;2023-03-14T04:14:03;9.40;99.90
43249;DHT22;29216;51.248;6.808;2023-03-14T04:16:28;9.40;99.90
43249;DHT22;29216;51.248;6.808;2023-03-14T04:18:56;9.50;99.90
43249;DHT22;29216;51.248;6.808;2023-03-14T04:21:22;9.50;99.90
43249;DHT22;29216;51.248;6.808;2023-03-14T04:23:48;9.40;99.90
43249;DHT22;29216;51.248;6.808;2023-03-14T04:26:14;9.50;99.90
43249;DHT22;29216;51.248;6.808;2023-03-14T04:28:39;9.50;99.90
43249;DHT22;29216;51.248;6.808;2023-03-14T04:31:13;9.50;99.90
43249;DHT22;29216;51.248;6.808;2023-03-14T04:33:39;9.40;99.90
43249;DHT22;29216;51.248;6.808;2023-03-14T04:36:06;9.40;99.90
43249;DHT22;29216;51.248;6.808;2023-03-14T04:38:32;9.50;99.90
43249;DHT22;29216;51.248;6.808;2023-03-14T04:40:57;9.60;99.90
43249;DHT22;29216;51.248;6.808;2023-03-14T04:43:24;9.60;99.90
43249;DHT22;29216;51.248;6.808;2023-03-14T04:45:52;9.50;99.90
43249;DHT22;29216;51.248;6.808;2023-03-14T04:48:18;9.50;99.90
43249;DHT22;29216;51.248;6.808;2023-03-14T04:50:43;9.50;99.90
43249;DHT22;29216;51.248;6.808;2023-03-14T04:53:11;9.50;99.90
43249;DHT22;29216;51.248;6.808;2023-03-14T04:55:37;9.60;99.90
43249;DHT22;29216;51.248;6.808;2023-03-14T04:58:02;9.50;99.90
43249;DHT22;29216;51.248;6.808;2023-03-14T05:00:28;9.50;99.90
43249;DHT22;29216;51.248;6.808;2023-03-14T05:02:54;9.60;99.90
43249;DHT22;29216;51.248;6.808;2023-03-14T05:05:20;9.60;99.90
43249;DHT22;29216;51.248;6.808;2023-03-14T05:07:45;9.50;99.90
43249;DHT22;29216;51.248;6.808;2023-03-14T05:10:11;9.50;99.90
43249;DHT22;29216;51.248;6.808;2023-03-14T05:12:37;9.40;99.90
43249;DHT22;29216;51.248;6.808;2023-03-14T05:15:03;9.40;99.90
43249;DHT22;29216;51.248;6.808;2023-03-14T05:17:30;9.50;99.90
43249;DHT22;29216;51.248;6.808;2023-03-14T05:19:55;9.40;99.90
43249;DHT22;29216;51.248;6.808;2023-03-14T05:22:21;9.50;99.90
43249;DHT22;29216;51.248;6.808;2023-03-14T05:24:46;9.40;99.90
43249;DHT22;29216;51.248;6.808;2023-03-14T05:27:13;9.40;99.90
43249;DHT22;29216;51.248;6.808;2023-03-14T05:29:38;9.40;99.90
43249;DHT22;29216;51.248;6.808;2023-03-14T05:32:04;9.40;99.90
43249;DHT22;29216;51.248;6.808;2023-03-14T05:34:30;9.40;99.90
43249;DHT22;29216;51.248;6.808;2023-03-14T05:36:55;9.40;99.90
43249;DHT22;29216;51.248;6.808;2023-03-14T05:39:22;9.30;99.90
43249;DHT22;29216;51.248;6.808;2023-03-14T05:41:47;9.40;99.90
43249;DHT22;29216;51.248;6.808;2023-03-14T05:44:13;9.30;99.90
43249;DHT22;29216;51.248;6.808;2023-03-14T05:46:39;9.40;99.90
43249;DHT22;29216;51.248;6.808;2023-03-14T05:49:04;9.40;99.90
43249;DHT22;29216;51.248;6.808;2023-03-14T05:51:30;9.50;99.90
43249;DHT22;29216;51.248;6.808;2023-03-14T05:53:55;9.50;99.90
43249;DHT22;29216;51.248;6.808;2023-03-14T05:56:21;9.50;99.90
43249;DHT22;29216;51.248;6.808;2023-03-14T05:58:46;9.60;99.90
43249;DHT22;29216;51.248;6.808;2023-03-14T06:01:12;9.60;99.90
43249;DHT22;29216;51.248;6.808;2023-03-14T06:03:38;9.60;99.90
43249;DHT22;29216;51.248;6.808;2023-03-14T06:06:03;9.60;99.90
43249;DHT22;29216;51.248;6.808;2023-03-14T06:08:29;9.60;99.90
43249;DHT22;29216;51.248;6.808;2023-03-14T06:10:54;9.60;99.90
43249;DHT22;29216;51.248;6.808;2023-03-14T06:13:21;9.70;99.90
43249;DHT22;29216;51.248;6.808;2023-03-14T06:15:47;9.70;99.90
43249;DHT22;29216;51.248;6.808;2023-03-14T06:18:13;9.80;99.90
43249;DHT22;29216;51.248;6.808;2023-03-14T06:20:39;9.80;99.90
43249;DHT22;29216;51.248;6.808;2023-03-14T06:23:06;9.80;99.90
43249;DHT22;29216;51.248;6.808;2023-03-14T06:25:32;9.80;99.90
43249;DHT22;29216;51.248;6.808;2023-03-14T06:27:58;9.90;99.90
43249;DHT22;29216;51.248;6.808;2023-03-14T06:30:24;10.00;99.90
43249;DHT22;29216;51.248;6.808;2023-03-14T06:32:49;10.00;99.90
43249;DHT22;29216;51.248;6.808;2023-03-14T06:35:15;10.10;99.90
43249;DHT22;29216;51.248;6.808;2023-03-14T06:37:41;10.10;99.90
43249;DHT22;29216;51.248;6.808;2023-03-14T06:40:08;10.20;99.90
43249;DHT22;29216;51.248;6.808;2023-03-14T06:42:34;10.30;99.90
43249;DHT22;29216;51.248;6.808;2023-03-14T06:45:00;10.40;99.90
43249;DHT22;29216;51.248;6.808;2023-03-14T06:47:25;10.30;99.90
43249;DHT22;29216;51.248;6.808;2023-03-14T06:49:51;10.30;99.90
43249;DHT22;29216;51.248;6.808;2023-03-14T06:52:16;10.30;99.90
43249;DHT22;29216;51.248;6.808;2023-03-14T06:54:42;10.30;99.90
43249;DHT22;29216;51.248;6.808;2023-03-14T06:57:07;10.40;99.90
43249;DHT22;29216;51.248;6.808;2023-03-14T06:59:33;10.40;99.90
43249;DHT22;29216;51.248;6.808;2023-03-14T07:01:59;10.50;99.90
43249;DHT22;29216;51.248;6.808;2023-03-14T07:04:24;10.60;99.90
43249;DHT22;29216;51.248;6.808;2023-03-14T07:06:50;10.60;99.90
43249;DHT22;29216;51.248;6.808;2023-03-14T07:09:16;10.60;99.90
43249;DHT22;29216;51.248;6.808;2023-03-14T07:11:44;10.60;99.90
43249;DHT22;29216;51.248;6.808;2023-03-14T07:14:10;10.60;99.90
43249;DHT22;29216;51.248;6.808;2023-03-14T07:16:36;10.70;99.90
43249;DHT22;29216;51.248;6.808;2023-03-14T07:19:02;10.60;99.90
43249;DHT22;29216;51.248;6.808;2023-03-14T07:21:28;10.60;99.90
43249;DHT22;29216;51.248;6.808;2023-03-14T07:23:54;10.50;99.90
43249;DHT22;29216;51.248;6.808;2023-03-14T07:26:19;10.50;99.90
43249;DHT22;29216;51.248;6.808;2023-03-14T07:28:45;10.50;99.90
43249;DHT22;29216;51.248;6.808;2023-03-14T07:31:11;10.50;99.90
43249;DHT22;29216;51.248;6.808;2023-03-14T07:33:36;10.60;99.90
43249;DHT22;29216;51.248;6.808;2023-03-14T07:36:02;10.60;99.90
43249;DHT22;29216;51.248;6.808;2023-03-14T07:38:28;10.70;99.90
43249;DHT22;29216;51.248;6.808;2023-03-14T07:41:02;10.80;99.90
43249;DHT22;29216;51.248;6.808;2023-03-14T07:43:28;10.90;99.90
43249;DHT22;29216;51.248;6.808;2023-03-14T07:45:54;10.90;99.90
43249;DHT22;29216;51.248;6.808;2023-03-14T07:48:19;11.00;99.90
43249;DHT22;29216;51.248;6.808;2023-03-14T07:50:48;11.10;99.90
43249;DHT22;29216;51.248;6.808;2023-03-14T07:53:14;11.10;99.90
43249;DHT22;29216;51.248;6.808;2023-03-14T07:55:40;11.20;99.90
43249;DHT22;29216;51.248;6.808;2023-03-14T07:58:05;11.40;99.90
43249;DHT22;29216;51.248;6.808;2023-03-14T08:00:31;11.50;99.90
43249;DHT22;29216;51.248;6.808;2023-03-14T08:02:58;11.70;99.90
43249;DHT22;29216;51.248;6.808;2023-03-14T08:05:23;11.90;99.90
43249;DHT22;29216;51.248;6.808;2023-03-14T08:07:49;12.20;99.90
43249;DHT22;29216;51.248;6.808;2023-03-14T08:10:15;12.40;99.90
43249;DHT22;29216;51.248;6.808;2023-03-14T08:12:51;12.60;99.90
43249;DHT22;29216;51.248;6.808;2023-03-14T08:15:18;12.60;99.90
43249;DHT22;29216;51.248;6.808;2023-03-14T08:17:44;12.70;99.90
43249;DHT22;29216;51.248;6.808;2023-03-14T08:20:11;12.70;99.90
43249;DHT22;29216;51.248;6.808;2023-03-14T08:22:38;12.70;99.90
43249;DHT22;29216;51.248;6.808;2023-03-14T08:25:05;12.70;99.90
43249;DHT22;29216;51.248;6.808;2023-03-14T08:27:31;12.70;99.90
43249;DHT22;29216;51.248;6.808;2023-03-14T08:29:56;12.60;99.90
43249;DHT22;29216;51.248;6.808;2023-03-14T08:32:22;12.50;99.90
43249;DHT22;29216;51.248;6.808;2023-03-14T08:34:49;12.40;99.90
43249;DHT22;29216;51.248;6.808;2023-03-14T08:37:14;12.40;99.90
43249;DHT22;29216;51.248;6.808;2023-03-14T08:39:40;12.30;99.90
43249;DHT22;29216;51.248;6.808;2023-03-14T08:42:06;12.30;99.90
43249;DHT22;29216;51.248;6.808;2023-03-14T08:44:31;12.20;99.90
43249;DHT22;29216;51.248;6.808;2023-03-14T08:46:57;12.20;99.90
43249;DHT22;29216;51.248;6.808;2023-03-14T08:49:23;12.20;99.90
43249;DHT22;29216;51.248;6.808;2023-03-14T08:51:48;12.10;99.90
43249;DHT22;29216;51.248;6.808;2023-03-14T08:54:14;11.90;99.90
43249;DHT22;29216;51.248;6.808;2023-03-14T08:56:39;11.90;99.90
43249;DHT22;29216;51.248;6.808;2023-03-14T08:59:05;11.70;99.90
43249;DHT22;29216;51.248;6.808;2023-03-14T09:01:31;11.60;99.90
43249;DHT22;29216;51.248;6.808;2023-03-14T09:03:57;11.50;99.90
43249;DHT22;29216;51.248;6.808;2023-03-14T09:06:22;11.40;99.90
43249;DHT22;29216;51.248;6.808;2023-03-14T09:08:48;11.40;99.90
43249;DHT22;29216;51.248;6.808;2023-03-14T09:11:14;11.30;99.90
43249;DHT22;29216;51.248;6.808;2023-03-14T09:13:40;11.20;99.90
43249;DHT22;29216;51.248;6.808;2023-03-14T09:16:07;11.30;99.90
43249;DHT22;29216;51.248;6.808;2023-03-14T09:18:32;11.20;99.90
43249;DHT22;29216;51.248;6.808;2023-03-14T09:20:58;11.10;99.90
43249;DHT22;29216;51.248;6.808;2023-03-14T09:23:24;11.10;99.90
43249;DHT22;29216;51.248;6.808;2023-03-14T09:25:57;11.00;99.90
43249;DHT22;29216;51.248;6.808;2023-03-14T09:28:23;10.80;99.90
43249;DHT22;29216;51.248;6.808;2023-03-14T09:30:49;10.40;99.90
43249;DHT22;29216;51.248;6.808;2023-03-14T09:33:15;10.10;99.90
43249;DHT22;29216;51.248;6.808;2023-03-14T09:35:41;9.90;99.90
43249;DHT22;29216;51.248;6.808;2023-03-14T09:38:06;9.70;99.90
43249;DHT22;29216;51.248;6.808;2023-03-14T09:40:35;9.30;99.90
43249;DHT22;29216;51.248;6.808;2023-03-14T09:43:01;9.20;99.90
43249;DHT22;29216;51.248;6.808;2023-03-14T09:45:36;9.00;99.90
43249;DHT22;29216;51.248;6.808;2023-03-14T09:48:03;9.00;99.90
43249;DHT22;29216;51.248;6.808;2023-03-14T09:50:43;8.90;99.90
43249;DHT22;29216;51.248;6.808;2023-03-14T09:53:21;8.80;99.90
43249;DHT22;29216;51.248;6.808;2023-03-14T09:55:50;8.70;99.90
43249;DHT22;29216;51.248;6.808;2023-03-14T09:58:23;8.70;99.90
43249;DHT22;29216;51.248;6.808;2023-03-14T10:00:50;8.80;99.90
43249;DHT22;29216;51.248;6.808;2023-03-14T10:03:31;8.80;99.90
43249;DHT22;29216;51.248;6.808;2023-03-14T10:05:58;8.80;99.90
43249;DHT22;29216;51.248;6.808;2023-03-14T10:08:24;8.90;99.90
43249;DHT22;29216;51.248;6.808;2023-03-14T10:10:50;9.10;99.90
43249;DHT22;29216;51.248;6.808;2023-03-14T10:13:19;9.10;99.90
43249;DHT22;29216;51.248;6.808;2023-03-14T10:15:55;9.20;99.90
43249;DHT22;29216;51.248;6.808;2023-03-14T10:18:23;9.30;99.90
43249;DHT22;29216;51.248;6.808;2023-03-14T10:21:01;9.30;99.90
43249;DHT22;29216;51.248;6.808;2023-03-14T10:23:29;9.30;99.90
43249;DHT22;29216;51.248;6.808;2023-03-14T10:28:38;9.30;99.90
43249;DHT22;29216;51.248;6.808;2023-03-14T10:31:04;9.40;99.90
43249;DHT22;29216;51.248;6.808;2023-03-14T10:33:35;9.60;99.90
43249;DHT22;29216;51.248;6.808;2023-03-14T10:36:03;9.70;99.90
43249;DHT22;29216;51.248;6.808;2023-03-14T10:38:31;9.90;99.90
43249;DHT22;29216;51.248;6.808;2023-03-14T10:40:58;10.00;99.90
43249;DHT22;29216;51.248;6.808;2023-03-14T10:43:35;10.00;99.90
43249;DHT22;29216;51.248;6.808;2023-03-14T10:46:09;9.90;99.90
43249;DHT22;29216;51.248;6.808;2023-03-14T10:48:35;9.80;99.90
43249;DHT22;29216;51.248;6.808;2023-03-14T10:54:33;9.70;99.90
43249;DHT22;29216;51.248;6.808;2023-03-14T10:56:34;9.60;99.90
43249;DHT22;29216;51.248;6.808;2023-03-14T10:59:02;9.50;99.90
43249;DHT22;29216;51.248;6.808;2023-03-14T11:07:06;8.90;99.90
43249;DHT22;29216;51.248;6.808;2023-03-14T11:09:39;8.70;99.90
43249;DHT22;29216;51.248;6.808;2023-03-14T11:22:59;8.30;99.90
43249;DHT22;29216;51.248;6.808;2023-03-14T11:25:35;8.20;99.90
43249;DHT22;29216;51.248;6.808;2023-03-14T11:30:54;8.10;99.90
43249;DHT22;29216;51.248;6.808;2023-03-14T11:33:37;8.00;99.90
43249;DHT22;29216;51.248;6.808;2023-03-14T11:36:07;7.90;99.90
43249;DHT22;29216;51.248;6.808;2023-03-14T11:38:46;8.10;99.90
43249;DHT22;29216;51.248;6.808;2023-03-14T11:41:34;8.30;99.90
43249;DHT22;29216;51.248;6.808;2023-03-14T11:44:08;8.40;99.60
43249;DHT22;29216;51.248;6.808;2023-03-14T11:46:39;8.50;95.10
43249;DHT22;29216;51.248;6.808;2023-03-14T11:51:53;8.50;95.80
43249;DHT22;29216;51.248;6.808;2023-03-14T11:54:55;8.50;98.10
43249;DHT22;29216;51.248;6.808;2023-03-14T11:57:22;8.50;98.00
43249;DHT22;29216;51.248;6.808;2023-03-14T12:00:17;8.60;96.70
43249;DHT22;29216;51.248;6.808;2023-03-14T12:11:17;8.60;90.50
43249;DHT22;29216;51.248;6.808;2023-03-14T12:13:49;8.50;86.80
43249;DHT22;29216;51.248;6.808;2023-03-14T12:18:50;8.20;93.00
43249;DHT22;29216;51.248;6.808;2023-03-14T12:21:17;8.20;91.80
43249;DHT22;29216;51.248;6.808;2023-03-14T12:23:44;8.30;91.50
43249;DHT22;29216;51.248;6.808;2023-03-14T12:41:53;9.40;51.50
43249;DHT22;29216;51.248;6.808;2023-03-14T12:49:53;9.50;26.10
43249;DHT22;29216;51.248;6.808;2023-03-14T12:55:36;9.40;29.00
43249;DHT22;29216;51.248;6.808;2023-03-14T12:58:26;9.30;23.20
43249;DHT22;29216;51.248;6.808;2023-03-14T13:01:03;9.00;35.10
43249;DHT22;29216;51.248;6.808;2023-03-14T13:03:57;8.60;61.50
43249;DHT22;29216;51.248;6.808;2023-03-14T13:06:52;8.20;86.00
43249;DHT22;29216;51.248;6.808;2023-03-14T13:12:09;8.00;96.00
43249;DHT22;29216;51.248;6.808;2023-03-14T13:14:41;8.10;93.20
43249;DHT22;29216;51.248;6.808;2023-03-14T13:17:12;8.30;95.40
43249;DHT22;29216;51.248;6.808;2023-03-14T13:19:39;8.60;77.50
43249;DHT22;29216;51.248;6.808;2023-03-14T13:22:12;8.80;65.80
43249;DHT22;29216;51.248;6.808;2023-03-14T13:24:40;8.80;65.50
43249;DHT22;29216;51.248;6.808;2023-03-14T13:27:20;8.90;54.30
43249;DHT22;29216;51.248;6.808;2023-03-14T13:29:48;8.80;37.40
43249;DHT22;29216;51.248;6.808;2023-03-14T13:32:25;8.80;51.40
43249;DHT22;29216;51.248;6.808;2023-03-14T13:34:51;8.90;36.40
43249;DHT22;29216;51.248;6.808;2023-03-14T13:37:22;8.90;50.20
43249;DHT22;29216;51.248;6.808;2023-03-14T13:39:56;8.90;59.60
43249;DHT22;29216;51.248;6.808;2023-03-14T13:42:26;8.80;46.90
43249;DHT22;29216;51.248;6.808;2023-03-14T13:44:54;8.60;59.20
43249;DHT22;29216;51.248;6.808;2023-03-14T13:47:23;8.30;51.00
43249;DHT22;29216;51.248;6.808;2023-03-14T13:49:50;7.90;53.40
43249;DHT22;29216;51.248;6.808;2023-03-14T13:52:29;7.70;80.30
43249;DHT22;29216;51.248;6.808;2023-03-14T13:54:56;7.50;86.40
43249;DHT22;29216;51.248;6.808;2023-03-14T13:57:22;7.50;94.00
43249;DHT22;29216;51.248;6.808;2023-03-14T14:00:07;7.60;94.40
43249;DHT22;29216;51.248;6.808;2023-03-14T14:02:39;7.70;94.40
43249;DHT22;29216;51.248;6.808;2023-03-14T14:05:04;7.70;91.70
43249;DHT22;29216;51.248;6.808;2023-03-14T14:07:30;7.70;85.60
43249;DHT22;29216;51.248;6.808;2023-03-14T14:09:58;7.60;90.60
43249;DHT22;29216;51.248;6.808;2023-03-14T14:12:36;7.60;91.60
43249;DHT22;29216;51.248;6.808;2023-03-14T14:15:14;7.50;91.80
43249;DHT22;29216;51.248;6.808;2023-03-14T14:17:46;7.50;93.90
43249;DHT22;29216;51.248;6.808;2023-03-14T14:22:57;7.40;96.40
43249;DHT22;29216;51.248;6.808;2023-03-14T14:25:23;7.40;88.20
43249;DHT22;29216;51.248;6.808;2023-03-14T14:27:50;7.40;86.70
43249;DHT22;29216;51.248;6.808;2023-03-14T14:32:46;7.60;62.30
43249;DHT22;29216;51.248;6.808;2023-03-14T14:35:41;7.60;51.30
43249;DHT22;29216;51.248;6.808;2023-03-14T14:38:16;7.60;22.20
43249;DHT22;29216;51.248;6.808;2023-03-14T14:40:48;7.70;28.20
43249;DHT22;29216;51.248;6.808;2023-03-14T14:43:18;7.80;1.00
43249;DHT22;29216;51.248;6.808;2023-03-14T14:45:45;7.90;1.00
43249;DHT22;29216;51.248;6.808;2023-03-14T14:48:13;8.00;1.00
43249;DHT22;29216;51.248;6.808;2023-03-14T14:51:01;8.10;1.00
43249;DHT22;29216;51.248;6.808;2023-03-14T14:56:21;8.40;99.90
43249;DHT22;29216;51.248;6.808;2023-03-14T14:58:50;8.40;99.90
43249;DHT22;29216;51.248;6.808;2023-03-14T15:03:46;8.60;99.90
43249;DHT22;29216;51.248;6.808;2023-03-14T15:06:14;8.60;44.10
43249;DHT22;29216;51.248;6.808;2023-03-14T15:08:42;8.70;63.30
43249;DHT22;29216;51.248;6.808;2023-03-14T15:11:20;8.70;51.70
43249;DHT22;29216;51.248;6.808;2023-03-14T15:13:46;8.70;56.00
43249;DHT22;29216;51.248;6.808;2023-03-14T15:16:12;8.70;25.90
43249;DHT22;29216;51.248;6.808;2023-03-14T15:18:39;8.70;36.40
43249;DHT22;29216;51.248;6.808;2023-03-14T15:21:05;8.80;22.70
43249;DHT22;29216;51.248;6.808;2023-03-14T15:23:31;8.80;21.30
43249;DHT22;29216;51.248;6.808;2023-03-14T15:25:57;8.80;13.60
43249;DHT22;29216;51.248;6.808;2023-03-14T15:28:24;8.80;6.10
43249;DHT22;29216;51.248;6.808;2023-03-14T15:30:53;8.70;15.50
43249;DHT22;29216;51.248;6.808;2023-03-14T15:33:20;8.70;1.60
43249;DHT22;29216;51.248;6.808;2023-03-14T15:35:47;8.70;18.00
43249;DHT22;29216;51.248;6.808;2023-03-14T15:38:16;8.70;19.10
43249;DHT22;29216;51.248;6.808;2023-03-14T15:40:41;8.70;12.40
43249;DHT22;29216;51.248;6.808;2023-03-14T15:43:07;8.60;15.10
43249;DHT22;29216;51.248;6.808;2023-03-14T15:45:33;8.70;19.20
43249;DHT22;29216;51.248;6.808;2023-03-14T15:47:59;8.70;12.70
43249;DHT22;29216;51.248;6.808;2023-03-14T15:50:25;8.70;15.90
43249;DHT22;29216;51.248;6.808;2023-03-14T15:52:51;8.80;3.50
43249;DHT22;29216;51.248;6.808;2023-03-14T15:55:17;8.80;1.00
43249;DHT22;29216;51.248;6.808;2023-03-14T15:57:44;8.70;1.00
43249;DHT22;29216;51.248;6.808;2023-03-14T16:00:13;8.80;1.00
43249;DHT22;29216;51.248;6.808;2023-03-14T16:02:40;8.70;1.00
43249;DHT22;29216;51.248;6.808;2023-03-14T16:05:08;8.70;1.00
43249;DHT22;29216;51.248;6.808;2023-03-14T16:07:34;8.70;1.00
43249;DHT22;29216;51.248;6.808;2023-03-14T16:10:00;8.60;1.00
43249;DHT22;29216;51.248;6.808;2023-03-14T16:12:25;8.50;2.40
43249;DHT22;29216;51.248;6.808;2023-03-14T16:14:51;8.50;1.00
43249;DHT22;29216;51.248;6.808;2023-03-14T16:17:16;8.50;99.90
43249;DHT22;29216;51.248;6.808;2023-03-14T16:19:42;8.50;99.90
43249;DHT22;29216;51.248;6.808;2023-03-14T16:22:08;8.50;99.90
43249;DHT22;29216;51.248;6.808;2023-03-14T16:24:34;8.40;99.90
43249;DHT22;29216;51.248;6.808;2023-03-14T16:26:59;8.40;99.90
43249;DHT22;29216;51.248;6.808;2023-03-14T16:29:25;8.30;99.90
43249;DHT22;29216;51.248;6.808;2023-03-14T16:31:51;8.30;99.90
43249;DHT22;29216;51.248;6.808;2023-03-14T16:34:17;8.30;99.90
43249;DHT22;29216;51.248;6.808;2023-03-14T16:36:43;8.30;99.90
43249;DHT22;29216;51.248;6.808;2023-03-14T16:39:08;8.30;99.90
43249;DHT22;29216;51.248;6.808;2023-03-14T16:41:34;8.30;99.90
43249;DHT22;29216;51.248;6.808;2023-03-14T16:44:00;8.20;99.90
43249;DHT22;29216;51.248;6.808;2023-03-14T16:46:27;8.20;99.90
43249;DHT22;29216;51.248;6.808;2023-03-14T16:48:54;8.10;93.50
43249;DHT22;29216;51.248;6.808;2023-03-14T16:51:22;7.90;99.90
43249;DHT22;29216;51.248;6.808;2023-03-14T16:53:48;7.80;99.90
43249;DHT22;29216;51.248;6.808;2023-03-14T16:56:14;7.70;99.90
43249;DHT22;29216;51.248;6.808;2023-03-14T16:58:41;7.70;99.90
43249;DHT22;29216;51.248;6.808;2023-03-14T17:01:08;7.60;99.90
43249;DHT22;29216;51.248;6.808;2023-03-14T17:03:38;7.50;27.10
43249;DHT22;29216;51.248;6.808;2023-03-14T17:06:03;7.40;38.80
43249;DHT22;29216;51.248;6.808;2023-03-14T17:08:29;7.30;29.20